createdAt,value
2023-01-02T00:01:42.777Z,24.40
2023-01-02T00:04:10.704Z,23.10
2023-01-02T00:06:39.663Z,22.60
2023-01-02T00:09:08.693Z,28.10
2023-01-02T00:11:36.635Z,21.20
2023-01-02T00:14:04.701Z,23.80
2023-01-02T00:16:32.993Z,20.20
2023-01-02T00:19:00.998Z,22.00
2023-01-02T00:21:28.934Z,20.70
2023-01-02T00:23:57.105Z,24.80
2023-01-02T00:26:25.057Z,22.80
2023-01-02T00:28:54.549Z,19.60
2023-01-02T00:31:22.865Z,24.70
2023-01-02T00:33:50.912Z,23.30
2023-01-02T00:36:18.931Z,26.20
2023-01-02T00:38:47.148Z,18.30
2023-01-02T00:41:15.378Z,20.20
2023-01-02T00:43:43.599Z,24.00
2023-01-02T00:46:12.444Z,20.60
2023-01-02T00:48:40.730Z,23.10
2023-01-02T00:51:08.819Z,18.90
2023-01-02T00:53:37.039Z,19.40
2023-01-02T00:56:05.814Z,18.80
2023-01-02T00:58:33.894Z,19.60
2023-01-02T01:01:02.161Z,18.60
2023-01-02T01:03:30.386Z,24.70
2023-01-02T01:05:58.412Z,21.90
2023-01-02T01:08:26.334Z,18.60
2023-01-02T01:10:54.265Z,18.50
2023-01-02T01:13:22.436Z,21.20
2023-01-02T01:15:50.436Z,16.90
2023-01-02T01:18:18.935Z,17.80
2023-01-02T01:20:46.824Z,19.60
2023-01-02T01:23:14.690Z,24.50
2023-01-02T01:25:42.743Z,18.70
2023-01-02T01:28:10.742Z,18.40
2023-01-02T01:30:38.732Z,17.50
2023-01-02T01:33:06.797Z,21.90
2023-01-02T01:35:34.793Z,21.30
2023-01-02T01:38:02.707Z,14.00
2023-01-02T01:40:38.519Z,14.90
2023-01-02T01:43:14.689Z,19.30
2023-01-02T01:45:44.849Z,18.40
2023-01-02T01:48:16.940Z,14.30
2023-01-02T01:50:45.955Z,12.50
2023-01-02T01:53:19.441Z,14.50
2023-01-02T01:55:52.134Z,19.10
2023-01-02T01:58:26.319Z,17.20
2023-01-02T02:00:54.474Z,18.10
2023-01-02T02:03:27.930Z,15.90
2023-01-02T02:05:58.096Z,17.70
2023-01-02T02:08:29.091Z,15.30
2023-01-02T02:10:59.496Z,14.60
2023-01-02T02:13:29.154Z,20.00
2023-01-02T02:16:12.718Z,15.00
2023-01-02T02:19:25.479Z,19.50
2023-01-02T02:22:22.891Z,19.70
2023-01-02T02:25:05.747Z,16.70
2023-01-02T02:27:39.729Z,18.40
2023-01-02T02:30:12.163Z,14.90
2023-01-02T02:33:15.471Z,15.80
2023-01-02T02:35:59.539Z,13.50
2023-01-02T02:38:55.471Z,14.40
2023-01-02T02:41:32.490Z,15.40
2023-01-02T02:44:03.245Z,14.10
2023-01-02T02:49:29.532Z,19.70
2023-01-02T02:52:24.266Z,16.10
2023-01-02T02:55:11.633Z,12.80
2023-01-02T02:57:42.468Z,14.10
2023-01-02T03:00:14.251Z,13.00
2023-01-02T03:02:42.627Z,12.40
2023-01-02T03:05:16.483Z,15.10
2023-01-02T03:07:54.955Z,11.90
2023-01-02T03:11:03.064Z,13.30
2023-01-02T03:13:54.310Z,12.10
2023-01-02T03:16:37.091Z,12.90
2023-01-02T03:19:09.251Z,14.00
2023-01-02T03:21:46.176Z,10.60
2023-01-02T03:24:20.048Z,12.30
2023-01-02T03:26:52.741Z,11.30
2023-01-02T03:29:36.063Z,10.60
2023-01-02T03:32:07.500Z,17.10
2023-01-02T03:34:39.061Z,17.90
2023-01-02T03:37:14.173Z,11.40
2023-01-02T03:39:48.647Z,16.00
2023-01-02T03:42:34.635Z,12.30
2023-01-02T03:45:16.579Z,12.30
2023-01-02T03:48:06.465Z,12.20
2023-01-02T03:50:41.982Z,11.50
2023-01-02T03:53:10.238Z,15.10
2023-01-02T03:55:41.751Z,14.20
2023-01-02T03:58:18.437Z,13.10
2023-01-02T04:00:54.157Z,15.80
2023-01-02T04:03:31.812Z,10.10
2023-01-02T04:06:14.344Z,15.40
2023-01-02T04:08:48.223Z,11.20
2023-01-02T04:11:19.155Z,16.80
2023-01-02T04:13:56.916Z,15.40
2023-01-02T04:16:29.947Z,16.70
2023-01-02T04:19:05.802Z,20.00
2023-01-02T04:21:39.030Z,14.30
2023-01-02T04:24:15.401Z,18.80
2023-01-02T04:26:52.725Z,15.30
2023-01-02T04:29:20.727Z,19.20
2023-01-02T04:32:00.621Z,15.60
2023-01-02T04:34:33.202Z,11.70
2023-01-02T04:37:01.440Z,9.90
2023-01-02T04:39:29.597Z,13.10
2023-01-02T04:41:58.225Z,12.30
2023-01-02T04:44:26.218Z,19.20
2023-01-02T04:46:54.368Z,13.00
2023-01-02T04:49:22.956Z,15.40
2023-01-02T04:51:50.904Z,11.60
2023-01-02T04:54:19.240Z,11.00
2023-01-02T04:56:47.138Z,14.20
2023-01-02T04:59:15.176Z,12.20
2023-01-02T05:01:43.404Z,15.40
2023-01-02T05:04:11.389Z,16.10
2023-01-02T05:06:39.524Z,17.80
2023-01-02T05:09:07.607Z,11.90
2023-01-02T05:11:35.512Z,16.00
2023-01-02T05:14:07.433Z,17.30
2023-01-02T05:16:36.072Z,16.20
2023-01-02T05:19:04.315Z,18.00
2023-01-02T05:21:50.511Z,16.00
2023-01-02T05:24:18.533Z,18.00
2023-01-02T05:26:46.425Z,18.80
2023-01-02T05:29:14.309Z,17.20
2023-01-02T05:31:42.273Z,10.70
2023-01-02T05:34:13.950Z,13.40
2023-01-02T05:36:42.814Z,22.60
2023-01-02T05:39:13.800Z,32.50
2023-01-02T05:41:42.532Z,18.70
2023-01-02T05:44:11.066Z,16.50
2023-01-02T05:46:39.825Z,12.20
2023-01-02T05:49:09.296Z,13.10
2023-01-02T05:51:37.762Z,13.80
2023-01-02T05:54:05.884Z,13.30
2023-01-02T05:56:33.800Z,18.10
2023-01-02T05:59:01.742Z,15.20
2023-01-02T06:01:30.602Z,19.00
2023-01-02T06:03:59.672Z,14.90
2023-01-02T06:06:38.969Z,17.50
2023-01-02T06:09:08.634Z,59.70
2023-01-02T06:11:36.914Z,35.30
2023-01-02T06:14:05.135Z,63.60
2023-01-02T06:16:33.017Z,40.00
2023-01-02T06:19:01.194Z,37.00
2023-01-02T06:21:30.421Z,42.70
2023-01-02T06:24:00.332Z,26.70
2023-01-02T06:26:34.526Z,21.60
2023-01-02T06:29:03.869Z,18.00
2023-01-02T06:31:33.518Z,25.00
2023-01-02T06:34:04.137Z,19.30
2023-01-02T06:36:34.389Z,18.10
2023-01-02T06:39:02.961Z,21.20
2023-01-02T06:41:31.058Z,19.80
2023-01-02T06:43:59.185Z,18.00
2023-01-02T06:46:27.330Z,15.30
2023-01-02T06:48:55.276Z,17.20
2023-01-02T06:51:24.361Z,17.50
2023-01-02T06:53:52.401Z,18.20
2023-01-02T06:56:21.429Z,17.50
2023-01-02T06:58:49.411Z,18.00
2023-01-02T07:01:22.874Z,18.90
2023-01-02T07:03:51.086Z,16.30
2023-01-02T07:06:21.861Z,17.30
2023-01-02T07:08:49.961Z,24.00
2023-01-02T07:11:23.921Z,17.50
2023-01-02T07:13:53.999Z,16.00
2023-01-02T07:16:23.470Z,18.00
2023-01-02T07:18:53.524Z,19.50
2023-01-02T07:21:22.007Z,21.70
2023-01-02T07:23:50.151Z,19.40
2023-01-02T07:26:18.607Z,21.70
2023-01-02T07:28:47.336Z,21.30
2023-01-02T07:31:17.848Z,25.30
2023-01-02T07:36:17.366Z,18.30
2023-01-02T07:38:45.367Z,17.50
2023-01-02T07:41:18.728Z,18.20
2023-01-02T07:43:47.729Z,17.30
2023-01-02T07:46:19.927Z,23.80
2023-01-02T07:48:50.509Z,17.50
2023-01-02T07:51:26.339Z,23.20
2023-01-02T07:53:56.644Z,18.40
2023-01-02T07:56:25.808Z,21.80
2023-01-02T07:58:53.829Z,20.40
2023-01-02T08:01:21.882Z,26.70
2023-01-02T08:03:50.145Z,21.40
2023-01-02T08:06:19.167Z,16.60
2023-01-02T08:08:47.612Z,16.00
2023-01-02T08:11:17.982Z,20.60
2023-01-02T08:13:46.413Z,17.10
2023-01-02T08:16:18.809Z,21.30
2023-01-02T08:18:47.603Z,19.10
2023-01-02T08:21:16.272Z,23.90
2023-01-02T08:23:44.189Z,18.70
2023-01-02T08:26:12.283Z,20.00
2023-01-02T08:28:41.535Z,23.20
2023-01-02T08:31:12.158Z,21.20
2023-01-02T08:33:40.478Z,25.50
2023-01-02T08:36:09.892Z,21.40
2023-01-02T08:38:38.099Z,22.20
2023-01-02T08:41:06.115Z,22.50
2023-01-02T08:43:35.641Z,18.40
2023-01-02T08:46:05.713Z,18.30
2023-01-02T08:48:34.859Z,14.10
2023-01-02T08:51:04.282Z,13.70
2023-01-02T08:53:32.618Z,12.60
2023-01-02T08:56:21.013Z,22.80
2023-01-02T08:58:57.052Z,12.90
2023-01-02T09:01:26.882Z,15.80
2023-01-02T09:03:56.363Z,16.30
2023-01-02T09:06:27.015Z,14.20
2023-01-02T09:08:57.182Z,18.30
2023-01-02T09:11:35.691Z,14.70
2023-01-02T09:14:05.535Z,19.60
2023-01-02T09:16:33.560Z,19.30
2023-01-02T09:19:02.532Z,21.60
2023-01-02T09:21:30.590Z,22.40
2023-01-02T09:23:59.010Z,31.60
2023-01-02T09:26:27.420Z,24.40
2023-01-02T09:28:55.432Z,21.80
2023-01-02T09:31:23.837Z,19.80
2023-01-02T09:33:53.463Z,25.10
2023-01-02T09:36:22.874Z,22.50
2023-01-02T09:38:52.707Z,24.00
2023-01-02T09:41:31.627Z,21.80
2023-01-02T09:44:27.439Z,27.80
2023-01-02T09:47:18.868Z,20.20
2023-01-02T09:49:50.057Z,14.60
2023-01-02T09:52:27.415Z,14.60
2023-01-02T09:54:55.484Z,18.80
2023-01-02T09:57:29.715Z,20.60
2023-01-02T10:00:05.665Z,18.40
2023-01-02T10:02:54.257Z,18.70
2023-01-02T10:05:28.175Z,25.80
2023-01-02T10:08:32.400Z,18.00
2023-01-02T10:11:09.922Z,19.00
2023-01-02T10:16:43.054Z,18.30
2023-01-02T10:19:27.887Z,17.30
2023-01-02T10:22:00.219Z,26.90
2023-01-02T10:24:47.001Z,23.00
2023-01-02T10:27:24.166Z,17.50
2023-01-02T10:30:00.389Z,20.00
2023-01-02T10:32:31.866Z,14.80
2023-01-02T10:35:14.811Z,14.20
2023-01-02T10:37:42.724Z,9.00
2023-01-02T10:40:10.933Z,11.10
2023-01-02T10:42:39.889Z,11.20
2023-01-02T10:45:15.012Z,11.50
2023-01-02T10:47:44.690Z,9.60
2023-01-02T10:50:22.913Z,17.70
2023-01-02T10:52:54.474Z,11.00
2023-01-02T10:55:41.235Z,11.10
2023-01-02T10:58:21.309Z,14.50
2023-01-02T11:00:51.668Z,10.10
2023-01-02T11:03:25.583Z,14.50
2023-01-02T11:06:02.174Z,8.90
2023-01-02T11:08:40.513Z,12.70
2023-01-02T11:11:17.734Z,12.70
2023-01-02T11:13:53.755Z,10.90
2023-01-02T11:16:25.097Z,13.20
2023-01-02T11:18:56.191Z,9.20
2023-01-02T11:21:28.389Z,13.50
2023-01-02T11:24:15.584Z,12.70
2023-01-02T11:26:45.566Z,13.00
2023-01-02T11:29:33.486Z,12.30
2023-01-02T11:32:03.342Z,12.40
2023-01-02T11:34:34.244Z,19.00
2023-01-02T11:37:14.302Z,11.00
2023-01-02T11:39:42.989Z,14.40
2023-01-02T11:42:48.298Z,13.60
2023-01-02T11:45:18.409Z,10.00
2023-01-02T11:48:00.715Z,13.20
2023-01-02T11:50:35.640Z,11.90
2023-01-02T11:53:13.035Z,13.00
2023-01-02T11:55:43.642Z,9.00
2023-01-02T11:58:31.402Z,13.10
2023-01-02T12:01:16.189Z,10.30
2023-01-02T12:03:44.789Z,12.80
2023-01-02T12:06:19.726Z,10.00
2023-01-02T12:09:13.886Z,14.90
2023-01-02T12:11:57.347Z,10.70
2023-01-02T12:14:37.687Z,11.10
2023-01-02T12:17:26.141Z,15.10
2023-01-02T12:20:06.074Z,12.50
2023-01-02T12:22:53.660Z,9.90
2023-01-02T12:25:27.799Z,12.80
2023-01-02T12:28:16.328Z,11.00
2023-01-02T12:31:14.871Z,9.80
2023-01-02T12:33:50.825Z,9.90
2023-01-02T12:36:29.613Z,8.50
2023-01-02T12:39:36.702Z,12.70
2023-01-02T12:42:35.599Z,12.50
2023-01-02T12:45:12.333Z,10.40
2023-01-02T12:48:14.755Z,9.90
2023-01-02T12:50:50.537Z,8.70
2023-01-02T12:53:37.379Z,8.30
2023-01-02T12:56:14.351Z,11.40
2023-01-02T12:59:20.786Z,10.60
2023-01-02T13:02:11.767Z,10.10
2023-01-02T13:04:44.798Z,12.10
2023-01-02T13:07:21.742Z,10.50
2023-01-02T13:09:50.929Z,11.90
2023-01-02T13:12:24.406Z,11.20
2023-01-02T13:14:56.327Z,16.40
2023-01-02T13:17:46.289Z,11.00
2023-01-02T13:20:20.276Z,13.20
2023-01-02T13:22:53.457Z,13.10
2023-01-02T13:25:24.773Z,12.50
2023-01-02T13:27:56.731Z,12.90
2023-01-02T13:30:34.048Z,12.10
2023-01-02T13:33:04.409Z,13.00
2023-01-02T13:35:37.585Z,14.20
2023-01-02T13:38:08.167Z,14.30
2023-01-02T13:40:36.387Z,12.50
2023-01-02T13:43:08.276Z,10.90
2023-01-02T13:45:41.945Z,12.50
2023-01-02T13:48:35.065Z,13.30
2023-01-02T13:51:17.815Z,14.90
2023-01-02T13:53:48.107Z,14.80
2023-01-02T13:56:25.949Z,11.40
2023-01-02T13:59:01.234Z,17.60
2023-01-02T14:01:42.376Z,12.10
2023-01-02T14:04:13.308Z,15.80
2023-01-02T14:06:48.550Z,12.90
2023-01-02T14:09:21.161Z,11.20
2023-01-02T14:11:55.486Z,11.00
2023-01-02T14:14:30.034Z,10.20
2023-01-02T14:17:15.264Z,15.90
2023-01-02T14:19:44.018Z,11.70
2023-01-02T14:22:15.748Z,19.70
2023-01-02T14:24:49.403Z,13.30
2023-01-02T14:27:24.124Z,11.20
2023-01-02T14:29:56.847Z,12.20
2023-01-02T14:32:34.048Z,12.70
2023-01-02T14:35:06.304Z,19.50
2023-01-02T14:37:53.349Z,15.90
2023-01-02T14:40:21.444Z,12.70
2023-01-02T14:43:31.038Z,10.90
2023-01-02T14:46:16.724Z,21.00
2023-01-02T14:48:58.343Z,21.40
2023-01-02T14:51:29.243Z,20.10
2023-01-02T14:54:01.781Z,17.10
2023-01-02T14:56:38.170Z,14.00
2023-01-02T14:59:13.433Z,17.10
2023-01-02T15:01:46.563Z,22.30
2023-01-02T15:04:23.221Z,16.30
2023-01-02T15:07:20.330Z,29.30
2023-01-02T15:09:54.116Z,27.90
2023-01-02T15:12:52.632Z,25.60
2023-01-02T15:15:28.276Z,35.80
2023-01-02T15:18:16.997Z,49.70
2023-01-02T15:20:50.952Z,34.70
2023-01-02T15:23:24.657Z,82.90
2023-01-02T15:26:33.218Z,82.90
2023-01-02T15:28:42.828Z,41.10
2023-01-02T15:31:15.820Z,33.50
2023-01-02T15:33:53.096Z,46.30
2023-01-02T15:36:39.357Z,36.70
2023-01-02T15:39:13.546Z,31.10
2023-01-02T15:41:49.137Z,31.10
2023-01-02T15:44:41.918Z,32.80
2023-01-02T15:47:10.792Z,36.50
2023-01-02T15:49:42.272Z,37.40
2023-01-02T15:52:22.967Z,30.20
2023-01-02T15:54:52.402Z,29.80
2023-01-02T15:57:26.769Z,33.70
2023-01-02T15:59:55.841Z,37.60
2023-01-02T16:02:44.816Z,52.50
2023-01-02T16:05:15.566Z,39.30
2023-01-02T16:07:51.875Z,46.00
2023-01-02T16:10:23.734Z,34.10
2023-01-02T16:12:54.625Z,34.90
2023-01-02T16:15:28.425Z,39.20
2023-01-02T16:17:57.400Z,55.80
2023-01-02T16:20:27.362Z,54.60
2023-01-02T16:22:59.488Z,56.20
2023-01-02T16:25:30.427Z,57.20
2023-01-02T16:28:36.032Z,57.10
2023-01-02T16:31:15.779Z,65.60
2023-01-02T16:33:45.895Z,73.60
2023-01-02T16:36:22.629Z,69.00
2023-01-02T16:38:51.970Z,65.20
2023-01-02T16:41:37.065Z,64.20
2023-01-02T16:44:12.589Z,73.70
2023-01-02T16:46:41.983Z,71.90
2023-01-02T16:49:19.810Z,74.20
2023-01-02T16:51:51.301Z,76.40
2023-01-02T16:54:20.367Z,87.30
2023-01-02T16:56:48.875Z,86.80
2023-01-02T16:59:16.919Z,88.90
2023-01-02T17:01:45.334Z,96.60
2023-01-02T17:04:15.163Z,98.80
2023-01-02T17:06:43.049Z,96.50
2023-01-02T17:09:11.020Z,90.70
2023-01-02T17:11:59.371Z,97.50
2023-01-02T17:14:28.998Z,109.60
2023-01-02T17:16:57.230Z,110.80
2023-01-02T17:19:25.405Z,114.60
2023-01-02T17:21:53.759Z,115.10
2023-01-02T17:24:21.683Z,115.50
2023-01-02T17:26:49.669Z,120.20
2023-01-02T17:29:19.103Z,114.30
2023-01-02T17:31:47.084Z,120.70
2023-01-02T17:34:15.382Z,123.30
2023-01-02T17:36:43.592Z,151.20
2023-01-02T17:39:11.767Z,156.70
2023-01-02T17:41:39.785Z,148.60
2023-01-02T17:44:07.718Z,144.50
2023-01-02T17:49:24.160Z,142.60
2023-01-02T17:51:52.477Z,144.60
2023-01-02T17:54:20.412Z,147.10
2023-01-02T17:56:48.756Z,144.00
2023-01-02T17:59:19.753Z,140.20
2023-01-02T18:01:48.445Z,141.00
2023-01-02T18:04:17.362Z,143.70
2023-01-02T18:06:45.849Z,156.70
2023-01-02T18:09:13.836Z,148.90
2023-01-02T18:11:43.145Z,143.70
2023-01-02T18:14:22.027Z,151.40
2023-01-02T18:16:51.844Z,154.40
2023-01-02T18:19:22.282Z,144.10
2023-01-02T18:21:50.886Z,147.80
2023-01-02T18:24:26.632Z,146.80
2023-01-02T18:27:02.490Z,144.40
2023-01-02T18:29:30.996Z,152.10
2023-01-02T18:31:59.540Z,146.00
2023-01-02T18:34:49.778Z,150.00
2023-01-02T18:37:28.477Z,147.70
2023-01-02T18:39:57.653Z,143.90
2023-01-02T18:42:28.692Z,139.20
2023-01-02T18:45:00.175Z,142.20
2023-01-02T18:47:34.432Z,126.90
2023-01-02T18:50:31.299Z,124.20
2023-01-02T18:53:07.897Z,112.20
2023-01-02T18:55:40.372Z,108.70
2023-01-02T18:58:43.459Z,102.80
2023-01-02T19:01:33.965Z,100.10
2023-01-02T19:04:20.495Z,101.90
2023-01-02T19:06:55.906Z,103.00
2023-01-02T19:09:34.368Z,110.40
2023-01-02T19:12:40.986Z,116.50
2023-01-02T19:15:45.536Z,113.90
2023-01-02T19:18:13.634Z,122.40
2023-01-02T19:20:48.207Z,112.70
2023-01-02T19:23:32.423Z,103.60
2023-01-02T19:26:28.178Z,118.30
2023-01-02T19:28:56.004Z,105.20
2023-01-02T19:31:24.970Z,115.70
2023-01-02T19:33:57.649Z,105.50
2023-01-02T19:36:37.123Z,113.00
2023-01-02T19:39:22.292Z,106.80
2023-01-02T19:42:09.602Z,109.10
2023-01-02T19:44:37.983Z,112.10
2023-01-02T19:47:06.028Z,112.50
2023-01-02T19:49:34.101Z,130.20
2023-01-02T19:52:02.031Z,125.00
2023-01-02T19:54:30.060Z,119.40
2023-01-02T19:56:58.023Z,121.50
2023-01-02T19:59:26.142Z,119.50
2023-01-02T20:01:54.222Z,112.40
2023-01-02T20:04:22.650Z,120.70
2023-01-02T20:06:50.675Z,116.70
2023-01-02T20:09:21.922Z,111.00
2023-01-02T20:12:08.444Z,119.20
2023-01-02T20:14:36.967Z,108.00
2023-01-02T20:17:06.227Z,102.60
2023-01-02T20:19:34.965Z,98.80
2023-01-02T20:22:03.553Z,102.20
2023-01-02T20:24:31.785Z,106.80
2023-01-02T20:27:01.382Z,108.00
2023-01-02T20:29:30.455Z,118.60
2023-01-02T20:32:00.283Z,111.60
2023-01-02T20:34:28.307Z,111.40
2023-01-02T20:36:56.578Z,115.80
2023-01-02T20:39:24.496Z,117.20
2023-01-02T20:41:52.518Z,105.30
2023-01-02T20:44:21.299Z,104.50
2023-01-02T20:46:49.422Z,107.80
2023-01-02T20:49:17.365Z,101.00
2023-01-02T20:51:45.381Z,103.00
2023-01-02T20:54:13.600Z,109.70
2023-01-02T20:56:41.864Z,97.00
2023-01-02T20:59:10.111Z,104.90
2023-01-02T21:01:38.298Z,103.80
2023-01-02T21:04:06.405Z,100.60
2023-01-02T21:06:34.989Z,109.70
2023-01-02T21:09:03.493Z,101.80
2023-01-02T21:11:32.035Z,107.10
2023-01-02T21:14:01.879Z,105.00
2023-01-02T21:16:31.133Z,109.60
2023-01-02T21:18:59.835Z,108.60
2023-01-02T21:21:27.827Z,110.00
2023-01-02T21:23:55.816Z,98.90
2023-01-02T21:26:24.054Z,98.50
2023-01-02T21:28:51.943Z,99.00
2023-01-02T21:31:20.829Z,103.50
2023-01-02T21:33:49.224Z,93.60
2023-01-02T21:36:17.259Z,92.40
2023-01-02T21:38:45.257Z,87.70
2023-01-02T21:41:32.056Z,89.60
2023-01-02T21:44:00.164Z,87.30
2023-01-02T21:46:28.253Z,87.40
2023-01-02T21:48:56.489Z,81.70
2023-01-02T21:51:27.672Z,81.00
2023-01-02T21:53:58.913Z,83.00
2023-01-02T21:56:26.908Z,77.30
2023-01-02T21:58:55.676Z,71.70
2023-01-02T22:01:23.962Z,76.90
2023-01-02T22:03:53.886Z,74.50
2023-01-02T22:06:22.824Z,69.60
2023-01-02T22:08:50.784Z,76.90
2023-01-02T22:11:37.482Z,76.80
2023-01-02T22:14:05.789Z,86.10
2023-01-02T22:16:33.803Z,86.00
2023-01-02T22:19:02.004Z,82.50
2023-01-02T22:21:31.414Z,68.80
2023-01-02T22:23:59.725Z,72.20
2023-01-02T22:26:28.713Z,79.40
2023-01-02T22:28:57.462Z,67.00
2023-01-02T22:31:25.603Z,69.30
2023-01-02T22:33:54.974Z,65.60
2023-01-02T22:36:23.967Z,65.70
2023-01-02T22:39:25.921Z,66.00
2023-01-02T22:41:45.854Z,73.10
2023-01-02T22:44:21.684Z,74.00
2023-01-02T22:46:55.238Z,74.00
2023-01-02T22:49:27.108Z,78.70
2023-01-02T22:52:06.912Z,68.80
2023-01-02T22:54:35.413Z,73.10
2023-01-02T22:57:09.614Z,76.00
2023-01-02T22:59:37.870Z,68.00
2023-01-02T23:02:09.469Z,69.70
2023-01-02T23:04:37.392Z,72.80
2023-01-02T23:07:23.294Z,70.40
2023-01-02T23:09:52.135Z,66.50
2023-01-02T23:12:20.323Z,60.10
2023-01-02T23:14:48.483Z,68.00
2023-01-02T23:17:34.992Z,69.20
2023-01-02T23:20:03.688Z,63.50
2023-01-02T23:22:31.891Z,70.00
2023-01-02T23:25:00.719Z,60.20
2023-01-02T23:27:28.687Z,63.90
2023-01-02T23:29:56.702Z,63.40
2023-01-02T23:32:24.600Z,57.50
2023-01-02T23:34:52.601Z,60.50
2023-01-02T23:37:20.843Z,60.30
2023-01-02T23:39:48.773Z,63.60
2023-01-02T23:42:16.744Z,69.20
2023-01-02T23:44:45.150Z,61.90
2023-01-02T23:47:17.304Z,66.30
2023-01-02T23:49:47.021Z,72.00
2023-01-02T23:52:15.012Z,67.00
2023-01-02T23:54:43.502Z,71.20
2023-01-02T23:57:11.546Z,60.50
2023-01-02T23:59:39.468Z,62.70
